sensor_id;sensor_type;location;lat;lon;timestamp;P1;durP1;ratioP1;P2;durP2;ratioP2
53899;SDS011;40509;32.858;-116.858;2023-02-21T00:01:03;3.10;;;1.52;;
53899;SDS011;40509;32.858;-116.858;2023-02-21T00:03:49;7.38;;;3.38;;
53899;SDS011;40509;32.858;-116.858;2023-02-21T00:06:35;8.10;;;2.03;;
53899;SDS011;40509;32.858;-116.858;2023-02-21T00:09:21;3.90;;;1.80;;
53899;SDS011;40509;32.858;-116.858;2023-02-21T00:12:06;3.47;;;2.05;;
53899;SDS011;40509;32.858;-116.858;2023-02-21T00:14:52;7.45;;;1.73;;
53899;SDS011;40509;32.858;-116.858;2023-02-21T00:17:37;6.00;;;2.58;;
53899;SDS011;40509;32.858;-116.858;2023-02-21T00:20:23;3.13;;;2.25;;
53899;SDS011;40509;32.858;-116.858;2023-02-21T00:23:08;5.15;;;2.70;;
53899;SDS011;40509;32.858;-116.858;2023-02-21T00:25:54;3.90;;;2.20;;
53899;SDS011;40509;32.858;-116.858;2023-02-21T00:28:40;5.18;;;2.10;;
53899;SDS011;40509;32.858;-116.858;2023-02-21T00:31:25;5.05;;;1.98;;
53899;SDS011;40509;32.858;-116.858;2023-02-21T00:34:11;5.40;;;2.08;;
53899;SDS011;40509;32.858;-116.858;2023-02-21T00:36:56;5.07;;;2.13;;
53899;SDS011;40509;32.858;-116.858;2023-02-21T00:39:42;3.50;;;2.03;;
53899;SDS011;40509;32.858;-116.858;2023-02-21T00:42:28;5.03;;;2.78;;
53899;SDS011;40509;32.858;-116.858;2023-02-21T00:45:14;1.88;;;1.67;;
53899;SDS011;40509;32.858;-116.858;2023-02-21T00:47:59;2.20;;;1.45;;
53899;SDS011;40509;32.858;-116.858;2023-02-21T00:50:45;2.92;;;1.90;;
53899;SDS011;40509;32.858;-116.858;2023-02-21T00:53:30;5.28;;;2.10;;
53899;SDS011;40509;32.858;-116.858;2023-02-21T00:56:17;3.25;;;2.22;;
53899;SDS011;40509;32.858;-116.858;2023-02-21T00:59:03;5.28;;;1.75;;
53899;SDS011;40509;32.858;-116.858;2023-02-21T01:01:48;5.72;;;1.98;;
53899;SDS011;40509;32.858;-116.858;2023-02-21T01:04:33;3.63;;;1.95;;
53899;SDS011;40509;32.858;-116.858;2023-02-21T01:07:19;4.75;;;1.65;;
53899;SDS011;40509;32.858;-116.858;2023-02-21T01:10:06;4.18;;;2.25;;
53899;SDS011;40509;32.858;-116.858;2023-02-21T01:12:52;4.78;;;2.33;;
53899;SDS011;40509;32.858;-116.858;2023-02-21T01:15:38;5.53;;;1.95;;
53899;SDS011;40509;32.858;-116.858;2023-02-21T01:18:24;5.05;;;2.88;;
53899;SDS011;40509;32.858;-116.858;2023-02-21T01:21:13;5.00;;;1.77;;
53899;SDS011;40509;32.858;-116.858;2023-02-21T01:24:00;6.03;;;2.13;;
53899;SDS011;40509;32.858;-116.858;2023-02-21T01:26:45;2.28;;;1.58;;
53899;SDS011;40509;32.858;-116.858;2023-02-21T01:29:31;2.85;;;2.10;;
53899;SDS011;40509;32.858;-116.858;2023-02-21T01:32:17;2.80;;;1.92;;
53899;SDS011;40509;32.858;-116.858;2023-02-21T01:35:04;2.10;;;1.77;;
53899;SDS011;40509;32.858;-116.858;2023-02-21T01:37:50;1.95;;;1.67;;
53899;SDS011;40509;32.858;-116.858;2023-02-21T01:40:36;18.25;;;2.20;;
53899;SDS011;40509;32.858;-116.858;2023-02-21T01:43:23;4.38;;;1.58;;
53899;SDS011;40509;32.858;-116.858;2023-02-21T01:46:12;8.40;;;2.33;;
53899;SDS011;40509;32.858;-116.858;2023-02-21T01:49:01;5.15;;;2.72;;
53899;SDS011;40509;32.858;-116.858;2023-02-21T01:51:58;6.63;;;2.13;;
53899;SDS011;40509;32.858;-116.858;2023-02-21T01:54:46;4.50;;;2.35;;
53899;SDS011;40509;32.858;-116.858;2023-02-21T01:57:34;7.93;;;2.00;;
53899;SDS011;40509;32.858;-116.858;2023-02-21T02:00:20;17.50;;;2.22;;
53899;SDS011;40509;32.858;-116.858;2023-02-21T02:03:06;2.03;;;1.83;;
53899;SDS011;40509;32.858;-116.858;2023-02-21T02:06:02;3.95;;;2.25;;
53899;SDS011;40509;32.858;-116.858;2023-02-21T02:08:50;2.97;;;1.70;;
53899;SDS011;40509;32.858;-116.858;2023-02-21T02:11:49;8.40;;;1.88;;
53899;SDS011;40509;32.858;-116.858;2023-02-21T02:42:25;6.47;;;1.65;;
53899;SDS011;40509;32.858;-116.858;2023-02-21T02:47:46;6.45;;;1.98;;
53899;SDS011;40509;32.858;-116.858;2023-02-21T02:50:19;4.70;;;2.45;;
53899;SDS011;40509;32.858;-116.858;2023-02-21T02:52:51;2.33;;;1.88;;
53899;SDS011;40509;32.858;-116.858;2023-02-21T02:55:29;3.83;;;2.42;;
53899;SDS011;40509;32.858;-116.858;2023-02-21T02:58:01;2.33;;;1.63;;
53899;SDS011;40509;32.858;-116.858;2023-02-21T03:00:31;3.25;;;1.83;;
53899;SDS011;40509;32.858;-116.858;2023-02-21T03:03:11;3.25;;;1.75;;
53899;SDS011;40509;32.858;-116.858;2023-02-21T03:11:17;4.68;;;2.08;;
53899;SDS011;40509;32.858;-116.858;2023-02-21T03:13:50;3.73;;;1.60;;
53899;SDS011;40509;32.858;-116.858;2023-02-21T03:16:26;4.43;;;1.42;;
53899;SDS011;40509;32.858;-116.858;2023-02-21T03:21:42;2.92;;;1.88;;
53899;SDS011;40509;32.858;-116.858;2023-02-21T03:24:23;5.82;;;2.10;;
53899;SDS011;40509;32.858;-116.858;2023-02-21T03:26:54;1.60;;;1.20;;
53899;SDS011;40509;32.858;-116.858;2023-02-21T03:29:43;7.97;;;2.88;;
53899;SDS011;40509;32.858;-116.858;2023-02-21T03:32:33;5.50;;;1.92;;
53899;SDS011;40509;32.858;-116.858;2023-02-21T03:35:02;10.05;;;1.77;;
53899;SDS011;40509;32.858;-116.858;2023-02-21T03:37:42;3.60;;;1.63;;
53899;SDS011;40509;32.858;-116.858;2023-02-21T03:40:16;3.03;;;1.65;;
53899;SDS011;40509;32.858;-116.858;2023-02-21T03:42:51;3.13;;;1.45;;
53899;SDS011;40509;32.858;-116.858;2023-02-21T03:45:21;4.93;;;2.63;;
53899;SDS011;40509;32.858;-116.858;2023-02-21T03:48:26;4.30;;;1.75;;
53899;SDS011;40509;32.858;-116.858;2023-02-21T03:50:55;4.15;;;2.13;;
53899;SDS011;40509;32.858;-116.858;2023-02-21T03:53:28;7.88;;;2.45;;
53899;SDS011;40509;32.858;-116.858;2023-02-21T03:55:55;2.03;;;1.63;;
53899;SDS011;40509;32.858;-116.858;2023-02-21T03:58:32;5.43;;;1.58;;
53899;SDS011;40509;32.858;-116.858;2023-02-21T04:00:59;2.38;;;1.75;;
53899;SDS011;40509;32.858;-116.858;2023-02-21T04:03:27;3.78;;;1.88;;
53899;SDS011;40509;32.858;-116.858;2023-02-21T04:06:00;4.80;;;1.60;;
53899;SDS011;40509;32.858;-116.858;2023-02-21T04:08:30;2.85;;;1.33;;
53899;SDS011;40509;32.858;-116.858;2023-02-21T04:10:57;4.10;;;1.83;;
53899;SDS011;40509;32.858;-116.858;2023-02-21T04:13:28;3.00;;;1.50;;
53899;SDS011;40509;32.858;-116.858;2023-02-21T04:15:56;2.83;;;2.22;;
53899;SDS011;40509;32.858;-116.858;2023-02-21T04:18:24;3.13;;;1.52;;
53899;SDS011;40509;32.858;-116.858;2023-02-21T04:20:54;5.07;;;1.83;;
53899;SDS011;40509;32.858;-116.858;2023-02-21T04:23:21;3.30;;;1.98;;
53899;SDS011;40509;32.858;-116.858;2023-02-21T04:25:49;1.23;;;1.10;;
53899;SDS011;40509;32.858;-116.858;2023-02-21T04:28:33;5.38;;;1.77;;
53899;SDS011;40509;32.858;-116.858;2023-02-21T04:31:00;2.92;;;1.52;;
53899;SDS011;40509;32.858;-116.858;2023-02-21T04:33:28;2.28;;;1.60;;
53899;SDS011;40509;32.858;-116.858;2023-02-21T04:35:56;3.35;;;1.73;;
53899;SDS011;40509;32.858;-116.858;2023-02-21T04:38:31;5.53;;;2.08;;
53899;SDS011;40509;32.858;-116.858;2023-02-21T04:40:59;1.15;;;1.05;;
53899;SDS011;40509;32.858;-116.858;2023-02-21T04:43:29;2.58;;;1.58;;
53899;SDS011;40509;32.858;-116.858;2023-02-21T04:45:56;3.33;;;2.17;;
53899;SDS011;40509;32.858;-116.858;2023-02-21T04:48:24;2.00;;;1.80;;
53899;SDS011;40509;32.858;-116.858;2023-02-21T04:50:52;2.13;;;1.60;;
53899;SDS011;40509;32.858;-116.858;2023-02-21T04:53:19;2.10;;;1.13;;
53899;SDS011;40509;32.858;-116.858;2023-02-21T04:55:46;3.28;;;2.25;;
53899;SDS011;40509;32.858;-116.858;2023-02-21T04:58:14;1.83;;;1.52;;
53899;SDS011;40509;32.858;-116.858;2023-02-21T05:00:41;2.78;;;1.48;;
53899;SDS011;40509;32.858;-116.858;2023-02-21T05:03:08;3.45;;;1.27;;
53899;SDS011;40509;32.858;-116.858;2023-02-21T05:05:35;2.25;;;1.55;;
53899;SDS011;40509;32.858;-116.858;2023-02-21T05:08:03;2.65;;;1.30;;
53899;SDS011;40509;32.858;-116.858;2023-02-21T05:10:30;3.95;;;1.70;;
53899;SDS011;40509;32.858;-116.858;2023-02-21T05:12:57;2.13;;;1.80;;
53899;SDS011;40509;32.858;-116.858;2023-02-21T05:15:25;2.38;;;1.75;;
53899;SDS011;40509;32.858;-116.858;2023-02-21T05:17:52;1.83;;;1.17;;
53899;SDS011;40509;32.858;-116.858;2023-02-21T05:20:19;2.83;;;2.28;;
53899;SDS011;40509;32.858;-116.858;2023-02-21T05:22:47;2.60;;;1.73;;
53899;SDS011;40509;32.858;-116.858;2023-02-21T05:25:16;1.58;;;1.48;;
53899;SDS011;40509;32.858;-116.858;2023-02-21T05:27:45;1.73;;;1.58;;
53899;SDS011;40509;32.858;-116.858;2023-02-21T05:30:13;3.03;;;1.40;;
53899;SDS011;40509;32.858;-116.858;2023-02-21T05:32:42;3.75;;;1.70;;
53899;SDS011;40509;32.858;-116.858;2023-02-21T05:35:10;5.57;;;1.63;;
53899;SDS011;40509;32.858;-116.858;2023-02-21T05:37:40;2.67;;;1.45;;
53899;SDS011;40509;32.858;-116.858;2023-02-21T05:40:09;2.78;;;1.40;;
53899;SDS011;40509;32.858;-116.858;2023-02-21T05:42:38;1.85;;;1.10;;
53899;SDS011;40509;32.858;-116.858;2023-02-21T05:45:05;1.48;;;1.15;;
53899;SDS011;40509;32.858;-116.858;2023-02-21T05:47:33;3.10;;;1.75;;
53899;SDS011;40509;32.858;-116.858;2023-02-21T05:50:01;3.35;;;1.55;;
53899;SDS011;40509;32.858;-116.858;2023-02-21T05:52:29;3.05;;;1.65;;
53899;SDS011;40509;32.858;-116.858;2023-02-21T05:54:57;2.65;;;1.67;;
53899;SDS011;40509;32.858;-116.858;2023-02-21T05:57:24;2.92;;;2.05;;
53899;SDS011;40509;32.858;-116.858;2023-02-21T05:59:51;1.73;;;0.95;;
53899;SDS011;40509;32.858;-116.858;2023-02-21T06:02:18;3.03;;;1.70;;
53899;SDS011;40509;32.858;-116.858;2023-02-21T06:04:45;5.72;;;1.45;;
53899;SDS011;40509;32.858;-116.858;2023-02-21T06:07:13;2.05;;;1.67;;
53899;SDS011;40509;32.858;-116.858;2023-02-21T06:09:40;2.00;;;1.48;;
53899;SDS011;40509;32.858;-116.858;2023-02-21T06:12:07;2.60;;;1.45;;
53899;SDS011;40509;32.858;-116.858;2023-02-21T06:14:34;2.50;;;1.17;;
53899;SDS011;40509;32.858;-116.858;2023-02-21T06:17:01;1.40;;;0.98;;
53899;SDS011;40509;32.858;-116.858;2023-02-21T06:19:29;2.72;;;1.45;;
53899;SDS011;40509;32.858;-116.858;2023-02-21T06:21:56;2.28;;;1.67;;
53899;SDS011;40509;32.858;-116.858;2023-02-21T06:24:23;3.30;;;1.35;;
53899;SDS011;40509;32.858;-116.858;2023-02-21T06:26:50;2.88;;;1.45;;
53899;SDS011;40509;32.858;-116.858;2023-02-21T06:29:17;2.28;;;1.30;;
53899;SDS011;40509;32.858;-116.858;2023-02-21T06:31:45;3.42;;;1.92;;
53899;SDS011;40509;32.858;-116.858;2023-02-21T06:34:12;2.05;;;1.17;;
53899;SDS011;40509;32.858;-116.858;2023-02-21T06:36:39;2.30;;;1.30;;
53899;SDS011;40509;32.858;-116.858;2023-02-21T06:39:06;1.38;;;1.00;;
53899;SDS011;40509;32.858;-116.858;2023-02-21T06:41:35;2.13;;;1.92;;
53899;SDS011;40509;32.858;-116.858;2023-02-21T06:44:02;2.42;;;1.13;;
53899;SDS011;40509;32.858;-116.858;2023-02-21T06:46:30;2.67;;;1.27;;
53899;SDS011;40509;32.858;-116.858;2023-02-21T06:48:57;3.03;;;1.15;;
53899;SDS011;40509;32.858;-116.858;2023-02-21T06:51:25;2.00;;;1.67;;
53899;SDS011;40509;32.858;-116.858;2023-02-21T06:53:55;2.10;;;1.20;;
53899;SDS011;40509;32.858;-116.858;2023-02-21T06:56:23;4.05;;;1.58;;
53899;SDS011;40509;32.858;-116.858;2023-02-21T06:58:50;2.45;;;1.23;;
53899;SDS011;40509;32.858;-116.858;2023-02-21T07:01:18;2.38;;;1.45;;
53899;SDS011;40509;32.858;-116.858;2023-02-21T07:03:46;3.45;;;1.05;;
53899;SDS011;40509;32.858;-116.858;2023-02-21T07:06:13;2.28;;;1.63;;
53899;SDS011;40509;32.858;-116.858;2023-02-21T07:08:41;1.13;;;1.00;;
53899;SDS011;40509;32.858;-116.858;2023-02-21T07:11:09;2.95;;;1.20;;
53899;SDS011;40509;32.858;-116.858;2023-02-21T07:13:36;2.67;;;1.42;;
53899;SDS011;40509;32.858;-116.858;2023-02-21T07:16:04;2.28;;;1.33;;
53899;SDS011;40509;32.858;-116.858;2023-02-21T07:18:32;2.70;;;1.20;;
53899;SDS011;40509;32.858;-116.858;2023-02-21T07:20:59;1.92;;;1.30;;
53899;SDS011;40509;32.858;-116.858;2023-02-21T07:23:26;1.60;;;1.30;;
53899;SDS011;40509;32.858;-116.858;2023-02-21T07:25:54;2.65;;;1.55;;
53899;SDS011;40509;32.858;-116.858;2023-02-21T07:28:21;1.80;;;1.25;;
53899;SDS011;40509;32.858;-116.858;2023-02-21T07:30:48;2.22;;;1.65;;
53899;SDS011;40509;32.858;-116.858;2023-02-21T07:33:15;5.18;;;1.25;;
53899;SDS011;40509;32.858;-116.858;2023-02-21T07:35:42;2.30;;;1.25;;
53899;SDS011;40509;32.858;-116.858;2023-02-21T07:41:08;3.47;;;1.48;;
53899;SDS011;40509;32.858;-116.858;2023-02-21T07:43:35;4.35;;;1.50;;
53899;SDS011;40509;32.858;-116.858;2023-02-21T07:46:08;1.55;;;1.27;;
53899;SDS011;40509;32.858;-116.858;2023-02-21T07:48:36;2.88;;;0.70;;
53899;SDS011;40509;32.858;-116.858;2023-02-21T07:51:07;2.00;;;1.42;;
53899;SDS011;40509;32.858;-116.858;2023-02-21T07:53:35;1.35;;;1.25;;
53899;SDS011;40509;32.858;-116.858;2023-02-21T07:56:03;3.95;;;1.42;;
53899;SDS011;40509;32.858;-116.858;2023-02-21T07:58:30;1.52;;;1.00;;
53899;SDS011;40509;32.858;-116.858;2023-02-21T08:00:57;1.80;;;1.15;;
53899;SDS011;40509;32.858;-116.858;2023-02-21T08:03:24;1.05;;;0.90;;
53899;SDS011;40509;32.858;-116.858;2023-02-21T08:05:52;1.95;;;1.33;;
53899;SDS011;40509;32.858;-116.858;2023-02-21T08:08:19;2.28;;;1.25;;
53899;SDS011;40509;32.858;-116.858;2023-02-21T08:10:48;2.70;;;1.30;;
53899;SDS011;40509;32.858;-116.858;2023-02-21T08:13:15;1.08;;;1.00;;
53899;SDS011;40509;32.858;-116.858;2023-02-21T08:15:42;2.88;;;1.15;;
53899;SDS011;40509;32.858;-116.858;2023-02-21T08:18:19;2.78;;;1.08;;
53899;SDS011;40509;32.858;-116.858;2023-02-21T08:20:50;2.22;;;1.52;;
53899;SDS011;40509;32.858;-116.858;2023-02-21T08:23:18;2.15;;;1.33;;
53899;SDS011;40509;32.858;-116.858;2023-02-21T08:25:46;4.57;;;2.00;;
53899;SDS011;40509;32.858;-116.858;2023-02-21T08:28:13;1.60;;;0.98;;
53899;SDS011;40509;32.858;-116.858;2023-02-21T08:30:42;2.55;;;1.55;;
53899;SDS011;40509;32.858;-116.858;2023-02-21T08:33:09;1.48;;;1.02;;
53899;SDS011;40509;32.858;-116.858;2023-02-21T08:35:36;3.63;;;1.60;;
53899;SDS011;40509;32.858;-116.858;2023-02-21T08:38:04;2.15;;;1.45;;
53899;SDS011;40509;32.858;-116.858;2023-02-21T08:40:32;1.83;;;1.05;;
53899;SDS011;40509;32.858;-116.858;2023-02-21T08:42:59;3.58;;;1.27;;
53899;SDS011;40509;32.858;-116.858;2023-02-21T08:45:27;1.67;;;1.35;;
53899;SDS011;40509;32.858;-116.858;2023-02-21T08:47:55;2.22;;;1.35;;
53899;SDS011;40509;32.858;-116.858;2023-02-21T08:50:24;1.75;;;1.45;;
53899;SDS011;40509;32.858;-116.858;2023-02-21T08:52:52;2.88;;;1.20;;
53899;SDS011;40509;32.858;-116.858;2023-02-21T08:55:20;1.92;;;1.13;;
53899;SDS011;40509;32.858;-116.858;2023-02-21T08:57:48;1.48;;;1.02;;
53899;SDS011;40509;32.858;-116.858;2023-02-21T09:00:17;7.35;;;1.58;;
53899;SDS011;40509;32.858;-116.858;2023-02-21T09:02:49;2.15;;;1.25;;
53899;SDS011;40509;32.858;-116.858;2023-02-21T09:05:18;1.02;;;0.77;;
53899;SDS011;40509;32.858;-116.858;2023-02-21T09:07:50;2.20;;;1.08;;
53899;SDS011;40509;32.858;-116.858;2023-02-21T09:10:21;2.10;;;1.27;;
53899;SDS011;40509;32.858;-116.858;2023-02-21T09:12:48;1.48;;;1.20;;
53899;SDS011;40509;32.858;-116.858;2023-02-21T09:15:16;1.83;;;1.35;;
53899;SDS011;40509;32.858;-116.858;2023-02-21T09:17:43;1.73;;;1.20;;
53899;SDS011;40509;32.858;-116.858;2023-02-21T09:20:12;1.60;;;1.08;;
53899;SDS011;40509;32.858;-116.858;2023-02-21T09:22:43;4.70;;;1.63;;
53899;SDS011;40509;32.858;-116.858;2023-02-21T09:25:11;0.95;;;0.80;;
53899;SDS011;40509;32.858;-116.858;2023-02-21T09:27:40;3.88;;;1.42;;
53899;SDS011;40509;32.858;-116.858;2023-02-21T09:30:12;1.52;;;1.33;;
53899;SDS011;40509;32.858;-116.858;2023-02-21T09:32:46;1.42;;;1.17;;
53899;SDS011;40509;32.858;-116.858;2023-02-21T09:35:14;5.45;;;1.88;;
53899;SDS011;40509;32.858;-116.858;2023-02-21T09:37:43;1.45;;;0.80;;
53899;SDS011;40509;32.858;-116.858;2023-02-21T09:43:15;2.20;;;0.77;;
53899;SDS011;40509;32.858;-116.858;2023-02-21T09:45:55;2.80;;;1.23;;
53899;SDS011;40509;32.858;-116.858;2023-02-21T09:48:24;1.27;;;0.82;;
53899;SDS011;40509;32.858;-116.858;2023-02-21T09:50:55;1.75;;;1.10;;
53899;SDS011;40509;32.858;-116.858;2023-02-21T09:53:25;1.90;;;1.10;;
53899;SDS011;40509;32.858;-116.858;2023-02-21T09:55:59;1.17;;;0.93;;
53899;SDS011;40509;32.858;-116.858;2023-02-21T09:58:31;1.70;;;1.08;;
53899;SDS011;40509;32.858;-116.858;2023-02-21T10:01:00;1.38;;;1.08;;
53899;SDS011;40509;32.858;-116.858;2023-02-21T10:03:40;2.00;;;1.20;;
53899;SDS011;40509;32.858;-116.858;2023-02-21T10:06:25;1.52;;;0.85;;
53899;SDS011;40509;32.858;-116.858;2023-02-21T10:12:05;0.90;;;0.65;;
53899;SDS011;40509;32.858;-116.858;2023-02-21T10:17:54;3.25;;;1.23;;
53899;SDS011;40509;32.858;-116.858;2023-02-21T10:20:27;0.90;;;0.85;;
53899;SDS011;40509;32.858;-116.858;2023-02-21T10:23:01;1.30;;;1.08;;
53899;SDS011;40509;32.858;-116.858;2023-02-21T10:25:31;1.55;;;1.08;;
53899;SDS011;40509;32.858;-116.858;2023-02-21T10:28:02;3.38;;;0.90;;
53899;SDS011;40509;32.858;-116.858;2023-02-21T10:30:34;1.00;;;0.90;;
53899;SDS011;40509;32.858;-116.858;2023-02-21T10:33:03;2.22;;;0.93;;
53899;SDS011;40509;32.858;-116.858;2023-02-21T10:35:32;1.80;;;1.00;;
53899;SDS011;40509;32.858;-116.858;2023-02-21T10:38:02;1.55;;;1.10;;
53899;SDS011;40509;32.858;-116.858;2023-02-21T10:40:50;1.63;;;1.00;;
53899;SDS011;40509;32.858;-116.858;2023-02-21T10:43:24;1.42;;;1.00;;
53899;SDS011;40509;32.858;-116.858;2023-02-21T10:46:16;1.77;;;0.68;;
53899;SDS011;40509;32.858;-116.858;2023-02-21T10:48:52;1.27;;;0.90;;
53899;SDS011;40509;32.858;-116.858;2023-02-21T10:51:29;1.67;;;1.20;;
53899;SDS011;40509;32.858;-116.858;2023-02-21T10:56:50;4.60;;;1.17;;
53899;SDS011;40509;32.858;-116.858;2023-02-21T10:59:24;3.28;;;1.00;;
53899;SDS011;40509;32.858;-116.858;2023-02-21T11:01:53;1.63;;;1.10;;
53899;SDS011;40509;32.858;-116.858;2023-02-21T11:04:29;1.83;;;0.95;;
53899;SDS011;40509;32.858;-116.858;2023-02-21T11:07:07;3.40;;;1.17;;
53899;SDS011;40509;32.858;-116.858;2023-02-21T11:09:41;3.13;;;0.90;;
53899;SDS011;40509;32.858;-116.858;2023-02-21T11:12:24;1.98;;;0.95;;
53899;SDS011;40509;32.858;-116.858;2023-02-21T11:17:29;1.23;;;1.08;;
53899;SDS011;40509;32.858;-116.858;2023-02-21T11:22:36;1.67;;;0.90;;
53899;SDS011;40509;32.858;-116.858;2023-02-21T11:28:00;1.52;;;0.63;;
53899;SDS011;40509;32.858;-116.858;2023-02-21T11:30:36;2.67;;;0.93;;
53899;SDS011;40509;32.858;-116.858;2023-02-21T11:33:06;1.23;;;1.10;;
53899;SDS011;40509;32.858;-116.858;2023-02-21T11:35:51;1.13;;;0.98;;
53899;SDS011;40509;32.858;-116.858;2023-02-21T11:38:35;0.88;;;0.75;;
53899;SDS011;40509;32.858;-116.858;2023-02-21T11:43:55;2.65;;;1.17;;
53899;SDS011;40509;32.858;-116.858;2023-02-21T11:46:30;0.90;;;0.70;;
53899;SDS011;40509;32.858;-116.858;2023-02-21T11:49:02;1.15;;;0.77;;
53899;SDS011;40509;32.858;-116.858;2023-02-21T11:54:28;1.65;;;0.80;;
53899;SDS011;40509;32.858;-116.858;2023-02-21T12:02:17;2.05;;;1.05;;
53899;SDS011;40509;32.858;-116.858;2023-02-21T12:08:01;1.45;;;1.10;;
53899;SDS011;40509;32.858;-116.858;2023-02-21T12:10:46;2.15;;;1.20;;
53899;SDS011;40509;32.858;-116.858;2023-02-21T12:16:10;1.05;;;0.73;;
53899;SDS011;40509;32.858;-116.858;2023-02-21T12:21:25;1.52;;;1.10;;
53899;SDS011;40509;32.858;-116.858;2023-02-21T12:46:59;1.25;;;0.95;;
53899;SDS011;40509;32.858;-116.858;2023-02-21T12:50:05;3.33;;;0.80;;
53899;SDS011;40509;32.858;-116.858;2023-02-21T12:52:37;1.02;;;0.73;;
53899;SDS011;40509;32.858;-116.858;2023-02-21T12:55:21;1.13;;;0.70;;
53899;SDS011;40509;32.858;-116.858;2023-02-21T13:00:41;1.40;;;1.23;;
53899;SDS011;40509;32.858;-116.858;2023-02-21T13:11:34;0.98;;;0.90;;
53899;SDS011;40509;32.858;-116.858;2023-02-21T13:14:12;2.30;;;1.08;;
53899;SDS011;40509;32.858;-116.858;2023-02-21T13:16:46;0.85;;;0.70;;
53899;SDS011;40509;32.858;-116.858;2023-02-21T13:19:14;1.55;;;0.82;;
53899;SDS011;40509;32.858;-116.858;2023-02-21T13:29:31;3.13;;;0.75;;
53899;SDS011;40509;32.858;-116.858;2023-02-21T13:32:13;0.82;;;0.65;;
53899;SDS011;40509;32.858;-116.858;2023-02-21T13:34:52;1.25;;;1.02;;
53899;SDS011;40509;32.858;-116.858;2023-02-21T13:37:25;0.80;;;0.55;;
53899;SDS011;40509;32.858;-116.858;2023-02-21T13:39:59;1.80;;;1.17;;
53899;SDS011;40509;32.858;-116.858;2023-02-21T13:42:35;1.65;;;1.10;;
53899;SDS011;40509;32.858;-116.858;2023-02-21T13:45:17;2.53;;;1.10;;
53899;SDS011;40509;32.858;-116.858;2023-02-21T13:58:40;0.77;;;0.60;;
53899;SDS011;40509;32.858;-116.858;2023-02-21T14:03:48;1.20;;;0.90;;
53899;SDS011;40509;32.858;-116.858;2023-02-21T14:06:23;1.38;;;0.90;;
53899;SDS011;40509;32.858;-116.858;2023-02-21T14:08:53;0.60;;;0.60;;
53899;SDS011;40509;32.858;-116.858;2023-02-21T14:11:27;1.13;;;0.88;;
53899;SDS011;40509;32.858;-116.858;2023-02-21T14:14:02;0.90;;;0.75;;
53899;SDS011;40509;32.858;-116.858;2023-02-21T14:24:44;0.60;;;0.60;;
53899;SDS011;40509;32.858;-116.858;2023-02-21T14:32:40;2.72;;;1.08;;
53899;SDS011;40509;32.858;-116.858;2023-02-21T14:43:16;0.85;;;0.85;;
53899;SDS011;40509;32.858;-116.858;2023-02-21T14:48:51;1.02;;;0.80;;
53899;SDS011;40509;32.858;-116.858;2023-02-21T15:03:16;0.77;;;0.50;;
53899;SDS011;40509;32.858;-116.858;2023-02-21T15:06:02;0.75;;;0.60;;
53899;SDS011;40509;32.858;-116.858;2023-02-21T15:08:40;0.55;;;0.50;;
53899;SDS011;40509;32.858;-116.858;2023-02-21T15:13:46;0.90;;;0.57;;
53899;SDS011;40509;32.858;-116.858;2023-02-21T15:16:14;2.00;;;0.85;;
53899;SDS011;40509;32.858;-116.858;2023-02-21T15:18:58;1.25;;;1.17;;
53899;SDS011;40509;32.858;-116.858;2023-02-21T15:21:27;6.72;;;0.85;;
53899;SDS011;40509;32.858;-116.858;2023-02-21T15:24:02;0.65;;;0.63;;
53899;SDS011;40509;32.858;-116.858;2023-02-21T15:26:41;0.45;;;0.45;;
53899;SDS011;40509;32.858;-116.858;2023-02-21T15:29:09;0.70;;;0.70;;
53899;SDS011;40509;32.858;-116.858;2023-02-21T15:31:47;7.03;;;0.68;;
53899;SDS011;40509;32.858;-116.858;2023-02-21T15:36:50;1.20;;;1.10;;
53899;SDS011;40509;32.858;-116.858;2023-02-21T15:39:39;6.10;;;0.50;;
53899;SDS011;40509;32.858;-116.858;2023-02-21T15:42:12;2.08;;;1.08;;
53899;SDS011;40509;32.858;-116.858;2023-02-21T15:44:43;0.63;;;0.50;;
53899;SDS011;40509;32.858;-116.858;2023-02-21T15:47:17;0.93;;;0.60;;
53899;SDS011;40509;32.858;-116.858;2023-02-21T15:52:44;1.27;;;0.50;;
53899;SDS011;40509;32.858;-116.858;2023-02-21T16:05:54;2.33;;;0.60;;
53899;SDS011;40509;32.858;-116.858;2023-02-21T16:08:50;0.80;;;0.57;;
53899;SDS011;40509;32.858;-116.858;2023-02-21T16:11:47;0.70;;;0.60;;
53899;SDS011;40509;32.858;-116.858;2023-02-21T16:14:50;1.00;;;0.60;;
53899;SDS011;40509;32.858;-116.858;2023-02-21T16:17:27;0.98;;;0.60;;
53899;SDS011;40509;32.858;-116.858;2023-02-21T16:20:00;0.95;;;0.47;;
53899;SDS011;40509;32.858;-116.858;2023-02-21T16:22:42;1.75;;;0.73;;
53899;SDS011;40509;32.858;-116.858;2023-02-21T16:25:16;0.55;;;0.45;;
53899;SDS011;40509;32.858;-116.858;2023-02-21T16:27:48;2.17;;;0.88;;
53899;SDS011;40509;32.858;-116.858;2023-02-21T16:30:20;0.88;;;0.70;;
53899;SDS011;40509;32.858;-116.858;2023-02-21T16:32:54;1.23;;;0.90;;
53899;SDS011;40509;32.858;-116.858;2023-02-21T16:35:26;1.25;;;0.90;;
53899;SDS011;40509;32.858;-116.858;2023-02-21T16:37:57;0.77;;;0.77;;
53899;SDS011;40509;32.858;-116.858;2023-02-21T16:40:32;0.80;;;0.73;;
53899;SDS011;40509;32.858;-116.858;2023-02-21T16:43:02;1.08;;;0.60;;
53899;SDS011;40509;32.858;-116.858;2023-02-21T16:45:31;0.52;;;0.52;;
53899;SDS011;40509;32.858;-116.858;2023-02-21T16:48:03;1.05;;;0.95;;
53899;SDS011;40509;32.858;-116.858;2023-02-21T16:50:36;2.00;;;1.08;;
53899;SDS011;40509;32.858;-116.858;2023-02-21T16:53:05;0.57;;;0.57;;
53899;SDS011;40509;32.858;-116.858;2023-02-21T16:55:35;0.70;;;0.45;;
53899;SDS011;40509;32.858;-116.858;2023-02-21T16:58:04;0.63;;;0.45;;
53899;SDS011;40509;32.858;-116.858;2023-02-21T17:00:34;0.75;;;0.45;;
53899;SDS011;40509;32.858;-116.858;2023-02-21T17:03:01;0.65;;;0.55;;
53899;SDS011;40509;32.858;-116.858;2023-02-21T17:05:28;0.80;;;0.70;;
53899;SDS011;40509;32.858;-116.858;2023-02-21T17:07:56;1.00;;;0.90;;
53899;SDS011;40509;32.858;-116.858;2023-02-21T17:10:24;2.35;;;0.70;;
53899;SDS011;40509;32.858;-116.858;2023-02-21T17:12:51;0.85;;;0.50;;
53899;SDS011;40509;32.858;-116.858;2023-02-21T17:15:18;0.40;;;0.40;;
53899;SDS011;40509;32.858;-116.858;2023-02-21T17:17:47;1.52;;;0.90;;
53899;SDS011;40509;32.858;-116.858;2023-02-21T17:20:15;1.08;;;0.98;;
53899;SDS011;40509;32.858;-116.858;2023-02-21T17:22:44;2.10;;;0.47;;
53899;SDS011;40509;32.858;-116.858;2023-02-21T17:25:12;0.30;;;0.30;;
53899;SDS011;40509;32.858;-116.858;2023-02-21T17:27:39;0.40;;;0.40;;
53899;SDS011;40509;32.858;-116.858;2023-02-21T17:30:07;1.38;;;0.50;;
53899;SDS011;40509;32.858;-116.858;2023-02-21T17:32:35;0.85;;;0.47;;
53899;SDS011;40509;32.858;-116.858;2023-02-21T17:35:03;0.85;;;0.55;;
53899;SDS011;40509;32.858;-116.858;2023-02-21T17:37:31;0.63;;;0.40;;
53899;SDS011;40509;32.858;-116.858;2023-02-21T17:39:58;0.30;;;0.30;;
53899;SDS011;40509;32.858;-116.858;2023-02-21T17:42:25;0.55;;;0.55;;
53899;SDS011;40509;32.858;-116.858;2023-02-21T17:44:52;0.63;;;0.40;;
53899;SDS011;40509;32.858;-116.858;2023-02-21T17:47:21;0.90;;;0.65;;
53899;SDS011;40509;32.858;-116.858;2023-02-21T17:49:49;0.40;;;0.40;;
53899;SDS011;40509;32.858;-116.858;2023-02-21T17:52:20;1.17;;;0.70;;
53899;SDS011;40509;32.858;-116.858;2023-02-21T17:54:47;1.80;;;1.00;;
53899;SDS011;40509;32.858;-116.858;2023-02-21T17:57:15;3.35;;;0.80;;